createdAt,value
2022-10-02T00:01:17.942Z,1.45
2022-10-02T00:03:47.233Z,1.17
2022-10-02T00:06:20.911Z,1.38
2022-10-02T00:08:51.086Z,1.17
2022-10-02T00:11:21.619Z,1.30
2022-10-02T00:13:52.269Z,1.60
2022-10-02T00:16:27.079Z,1.30
2022-10-02T00:18:57.471Z,1.30
2022-10-02T00:21:38.022Z,1.17
2022-10-02T00:24:07.633Z,1.13
2022-10-02T00:26:38.950Z,1.50
2022-10-02T00:29:21.283Z,1.30
2022-10-02T00:31:58.826Z,1.30
2022-10-02T00:34:41.180Z,1.20
2022-10-02T00:37:20.713Z,1.17
2022-10-02T00:40:00.204Z,1.35
2022-10-02T00:43:01.641Z,1.83
2022-10-02T00:46:05.850Z,1.42
2022-10-02T00:48:55.693Z,1.48
2022-10-02T00:51:45.584Z,1.30
2022-10-02T00:54:28.752Z,1.48
2022-10-02T00:57:09.707Z,1.50
2022-10-02T00:59:58.781Z,1.40
2022-10-02T01:02:56.132Z,1.48
2022-10-02T01:05:23.809Z,1.73
2022-10-02T01:07:54.864Z,1.50
2022-10-02T01:10:25.397Z,1.50
2022-10-02T01:12:53.254Z,1.70
2022-10-02T01:15:23.034Z,1.48
2022-10-02T01:17:52.937Z,1.52
2022-10-02T01:20:24.396Z,1.40
2022-10-02T01:23:00.041Z,1.25
2022-10-02T01:25:30.027Z,1.23
2022-10-02T01:27:58.103Z,1.48
2022-10-02T01:30:26.041Z,1.40
2022-10-02T01:32:57.060Z,1.52
2022-10-02T01:35:28.781Z,2.28
2022-10-02T01:37:56.900Z,1.50
2022-10-02T01:40:27.024Z,1.50
2022-10-02T01:42:58.552Z,1.42
2022-10-02T01:45:38.619Z,1.63
2022-10-02T01:48:14.821Z,1.63
2022-10-02T01:50:53.800Z,1.90
2022-10-02T01:53:28.176Z,1.40
2022-10-02T01:56:04.678Z,1.67
2022-10-02T01:58:43.591Z,2.15
2022-10-02T02:01:18.725Z,1.60
2022-10-02T02:03:54.226Z,1.90
2022-10-02T02:06:30.015Z,1.33
2022-10-02T02:09:05.102Z,1.50
2022-10-02T02:11:33.908Z,1.30
2022-10-02T02:14:07.945Z,1.65
2022-10-02T02:16:42.329Z,1.55
2022-10-02T02:19:17.618Z,1.45
2022-10-02T02:21:49.993Z,2.08
2022-10-02T02:24:23.623Z,1.60
2022-10-02T02:26:53.604Z,1.42
2022-10-02T02:29:24.639Z,1.33
2022-10-02T02:31:55.324Z,1.75
2022-10-02T02:34:26.483Z,1.55
2022-10-02T02:36:59.274Z,1.30
2022-10-02T02:39:33.608Z,1.33
2022-10-02T02:42:05.877Z,1.70
2022-10-02T02:44:39.244Z,1.67
2022-10-02T02:47:12.736Z,1.20
2022-10-02T02:49:50.680Z,1.55
2022-10-02T02:52:23.050Z,1.48
2022-10-02T02:54:55.993Z,1.42
2022-10-02T02:57:28.148Z,1.42
2022-10-02T03:00:03.834Z,1.27
2022-10-02T03:02:31.799Z,1.60
2022-10-02T03:04:59.586Z,1.55
2022-10-02T03:07:27.554Z,1.60
2022-10-02T03:10:07.123Z,1.50
2022-10-02T03:12:49.596Z,1.50
2022-10-02T03:15:28.513Z,1.67
2022-10-02T03:18:05.879Z,1.42
2022-10-02T03:20:41.588Z,1.65
2022-10-02T03:23:17.068Z,1.23
2022-10-02T03:25:52.357Z,1.50
2022-10-02T03:28:50.543Z,1.58
2022-10-02T03:31:16.706Z,1.30
2022-10-02T03:33:45.887Z,1.70
2022-10-02T03:36:16.306Z,1.40
2022-10-02T03:38:45.027Z,1.83
2022-10-02T03:41:12.662Z,1.70
2022-10-02T03:43:40.336Z,2.13
2022-10-02T03:46:07.984Z,1.60
2022-10-02T03:48:36.939Z,1.40
2022-10-02T03:51:04.789Z,1.55
2022-10-02T03:53:35.366Z,1.40
2022-10-02T03:56:07.761Z,2.10
2022-10-02T03:58:35.987Z,1.65
2022-10-02T04:01:06.718Z,1.63
2022-10-02T04:03:38.330Z,1.50
2022-10-02T04:06:12.455Z,1.27
2022-10-02T04:08:44.698Z,1.60
2022-10-02T04:11:17.056Z,1.45
2022-10-02T04:13:48.625Z,1.60
2022-10-02T04:16:21.421Z,1.85
2022-10-02T04:18:56.458Z,1.50
2022-10-02T04:21:34.925Z,1.50
2022-10-02T04:24:10.317Z,1.50
2022-10-02T04:26:43.067Z,1.65
2022-10-02T04:29:17.121Z,1.75
2022-10-02T04:31:46.105Z,1.60
2022-10-02T04:34:15.084Z,2.17
2022-10-02T04:36:59.571Z,1.50
2022-10-02T04:39:46.455Z,1.85
2022-10-02T04:42:25.656Z,1.48
2022-10-02T04:45:05.431Z,1.75
2022-10-02T04:48:03.287Z,1.50
2022-10-02T04:50:42.320Z,2.33
2022-10-02T04:53:18.862Z,1.60
2022-10-02T04:55:58.679Z,1.58
2022-10-02T04:58:46.498Z,2.50
2022-10-02T05:01:22.355Z,2.00
2022-10-02T05:04:05.352Z,2.53
2022-10-02T05:06:49.468Z,1.88
2022-10-02T05:09:28.444Z,1.83
2022-10-02T05:12:20.469Z,1.80
2022-10-02T05:15:04.797Z,2.10
2022-10-02T05:17:55.245Z,2.13
2022-10-02T05:20:41.245Z,2.50
2022-10-02T05:23:27.727Z,2.58
2022-10-02T05:26:14.358Z,2.35
2022-10-02T05:29:00.702Z,2.67
2022-10-02T05:31:39.813Z,2.20
2022-10-02T05:34:22.845Z,2.80
2022-10-02T05:37:06.687Z,2.58
2022-10-02T05:39:37.646Z,2.13
2022-10-02T05:42:10.070Z,2.33
2022-10-02T05:44:41.064Z,2.33
2022-10-02T05:47:14.437Z,2.35
2022-10-02T05:49:48.005Z,3.00
2022-10-02T05:52:20.736Z,2.45
2022-10-02T05:54:55.512Z,2.50
2022-10-02T05:57:29.318Z,3.55
2022-10-02T06:00:07.381Z,2.40
2022-10-02T06:02:41.411Z,2.58
2022-10-02T06:05:16.484Z,2.75
2022-10-02T06:07:47.904Z,2.50
2022-10-02T06:10:20.108Z,2.60
2022-10-02T06:12:53.289Z,2.97
2022-10-02T06:15:25.556Z,3.15
2022-10-02T06:17:57.576Z,3.08
2022-10-02T06:20:29.996Z,2.70
2022-10-02T06:23:05.233Z,2.97
2022-10-02T06:25:39.185Z,2.97
2022-10-02T06:28:12.561Z,2.72
2022-10-02T06:30:44.411Z,2.80
2022-10-02T06:33:18.622Z,2.38
2022-10-02T06:36:01.827Z,2.97
2022-10-02T06:38:45.083Z,2.30
2022-10-02T06:41:29.494Z,2.33
2022-10-02T06:44:21.809Z,2.17
2022-10-02T06:47:03.762Z,2.03
2022-10-02T06:49:42.581Z,2.70
2022-10-02T06:52:22.993Z,2.20
2022-10-02T06:55:06.077Z,2.45
2022-10-02T06:57:56.815Z,2.33
2022-10-02T07:00:24.430Z,2.42
2022-10-02T07:03:31.387Z,3.03
2022-10-02T07:06:33.281Z,2.60
2022-10-02T07:09:45.798Z,3.10
2022-10-02T07:12:31.125Z,2.63
2022-10-02T07:15:19.140Z,2.45
2022-10-02T07:17:57.256Z,3.85
2022-10-02T07:20:39.689Z,2.80
2022-10-02T07:23:40.101Z,2.30
2022-10-02T07:26:36.376Z,2.13
2022-10-02T07:29:21.503Z,2.63
2022-10-02T07:32:10.819Z,3.08
2022-10-02T07:34:45.413Z,4.05
2022-10-02T07:37:22.136Z,5.00
2022-10-02T07:40:10.201Z,5.50
2022-10-02T07:43:00.981Z,4.22
2022-10-02T07:45:33.507Z,2.88
2022-10-02T07:48:40.325Z,3.00
2022-10-02T07:51:40.023Z,2.78
2022-10-02T07:54:19.937Z,3.05
2022-10-02T07:56:49.581Z,3.22
2022-10-02T07:59:18.763Z,2.80
2022-10-02T08:01:50.603Z,2.40
2022-10-02T08:04:26.959Z,2.22
2022-10-02T08:06:59.127Z,2.70
2022-10-02T08:09:34.656Z,2.70
2022-10-02T08:12:09.147Z,2.88
2022-10-02T08:14:40.542Z,3.53
2022-10-02T08:17:20.844Z,4.63
2022-10-02T08:19:52.560Z,3.72
2022-10-02T08:22:26.089Z,3.80
2022-10-02T08:24:57.751Z,4.10
2022-10-02T08:27:30.449Z,4.15
2022-10-02T08:30:04.281Z,3.58
2022-10-02T08:32:34.989Z,3.90
2022-10-02T08:35:12.381Z,3.50
2022-10-02T08:37:49.482Z,3.88
2022-10-02T08:40:57.411Z,3.67
2022-10-02T08:43:48.506Z,4.47
2022-10-02T08:46:44.044Z,4.00
2022-10-02T08:49:48.301Z,4.00
2022-10-02T08:52:38.841Z,4.10
2022-10-02T08:55:31.269Z,4.30
2022-10-02T08:58:29.757Z,9.02
2022-10-02T09:01:11.868Z,4.93
2022-10-02T09:04:05.594Z,4.30
2022-10-02T09:07:08.807Z,5.40
2022-10-02T09:12:58.290Z,3.50
2022-10-02T09:15:47.858Z,3.03
2022-10-02T09:18:26.499Z,6.07
2022-10-02T09:21:16.115Z,4.20
2022-10-02T09:24:18.514Z,2.40
2022-10-02T09:27:16.099Z,1.67
2022-10-02T09:30:15.073Z,1.50
2022-10-02T09:33:11.632Z,1.58
2022-10-02T09:36:11.906Z,1.63
2022-10-02T09:39:18.592Z,1.83
2022-10-02T09:42:33.991Z,1.67
2022-10-02T09:45:21.081Z,2.15
2022-10-02T09:48:21.265Z,1.80
2022-10-02T09:51:05.809Z,2.30
2022-10-02T09:54:03.598Z,3.08
2022-10-02T09:57:06.934Z,3.30
2022-10-02T10:00:04.449Z,4.15
2022-10-02T10:02:54.973Z,3.92
2022-10-02T10:06:03.912Z,7.07
2022-10-02T10:08:52.341Z,4.68
2022-10-02T10:11:41.826Z,3.20
2022-10-02T10:14:48.109Z,3.65
2022-10-02T10:17:59.569Z,4.45
2022-10-02T10:21:03.307Z,4.03
2022-10-02T10:24:06.270Z,4.43
2022-10-02T10:27:08.238Z,4.07
2022-10-02T10:30:04.469Z,3.58
2022-10-02T10:33:09.972Z,3.88
2022-10-02T10:36:07.293Z,3.38
2022-10-02T10:38:50.759Z,3.78
2022-10-02T10:41:58.860Z,4.07
2022-10-02T10:45:05.407Z,5.60
2022-10-02T10:47:53.201Z,5.45
2022-10-02T10:50:45.285Z,5.43
2022-10-02T10:53:24.608Z,6.90
2022-10-02T10:56:37.078Z,5.45
2022-10-02T10:59:45.028Z,6.63
2022-10-02T11:02:54.581Z,5.57
2022-10-02T11:06:02.737Z,4.40
2022-10-02T11:09:05.599Z,4.22
2022-10-02T11:11:41.217Z,2.97
2022-10-02T11:14:21.955Z,2.10
2022-10-02T11:17:12.961Z,2.90
2022-10-02T11:19:55.812Z,2.33
2022-10-02T11:22:44.521Z,3.95
2022-10-02T11:25:39.583Z,5.00
2022-10-02T11:28:22.054Z,3.67
2022-10-02T11:30:59.751Z,5.53
2022-10-02T11:33:44.299Z,2.97
2022-10-02T11:36:41.625Z,4.10
2022-10-02T11:39:43.001Z,1.60
2022-10-02T11:42:53.041Z,1.70
2022-10-02T11:45:49.160Z,2.63
2022-10-02T11:48:44.544Z,5.10
2022-10-02T11:51:42.463Z,4.70
2022-10-02T11:54:30.189Z,2.95
2022-10-02T11:57:15.345Z,1.80
2022-10-02T12:00:04.567Z,1.58
2022-10-02T12:02:39.004Z,1.17
2022-10-02T12:05:21.762Z,1.80
2022-10-02T12:08:01.603Z,1.55
2022-10-02T12:10:44.119Z,2.10
2022-10-02T12:13:29.122Z,4.20
2022-10-02T12:16:05.901Z,1.77
2022-10-02T12:18:49.986Z,1.15
2022-10-02T12:21:48.505Z,1.00
2022-10-02T12:24:57.467Z,0.95
2022-10-02T12:27:42.691Z,0.80
2022-10-02T12:30:14.129Z,0.70
2022-10-02T12:33:08.150Z,0.88
2022-10-02T12:35:55.796Z,5.15
2022-10-02T12:38:35.078Z,2.20
2022-10-02T12:41:10.447Z,1.67
2022-10-02T12:44:09.735Z,1.45
2022-10-02T12:47:10.265Z,0.75
2022-10-02T12:49:47.311Z,0.73
2022-10-02T12:52:48.826Z,0.68
2022-10-02T12:55:48.681Z,2.17
2022-10-02T12:58:27.421Z,1.60
2022-10-02T13:01:31.441Z,1.63
2022-10-02T13:04:23.521Z,1.20
2022-10-02T13:07:24.971Z,1.45
2022-10-02T13:09:58.573Z,0.90
2022-10-02T13:12:42.311Z,1.38
2022-10-02T13:15:37.157Z,1.33
2022-10-02T13:18:17.132Z,1.23
2022-10-02T13:20:53.858Z,1.40
2022-10-02T13:23:25.449Z,1.02
2022-10-02T13:26:05.322Z,1.00
2022-10-02T13:29:14.775Z,1.58
2022-10-02T13:31:57.194Z,2.00
2022-10-02T13:34:45.923Z,2.28
2022-10-02T13:37:27.506Z,1.50
2022-10-02T13:40:17.848Z,2.25
2022-10-02T13:43:01.571Z,1.65
2022-10-02T13:45:36.025Z,2.17
2022-10-02T13:48:12.241Z,1.80
2022-10-02T13:50:50.625Z,1.98
2022-10-02T13:53:36.647Z,2.72
2022-10-02T13:56:15.776Z,24.67
2022-10-02T13:58:58.519Z,6.57
2022-10-02T14:01:33.514Z,26.63
2022-10-02T14:04:21.072Z,33.75
2022-10-02T14:06:55.587Z,12.02
2022-10-02T14:09:40.028Z,4.15
2022-10-02T14:12:23.264Z,2.35
2022-10-02T14:15:07.466Z,3.85
2022-10-02T14:17:44.905Z,2.38
2022-10-02T14:20:26.815Z,2.03
2022-10-02T14:23:09.255Z,2.33
2022-10-02T14:25:51.413Z,5.22
2022-10-02T14:28:46.950Z,4.80
2022-10-02T14:31:27.187Z,6.95
2022-10-02T14:34:22.323Z,3.85
2022-10-02T14:36:59.353Z,2.85
2022-10-02T14:39:35.661Z,1.48
2022-10-02T14:42:19.783Z,1.52
2022-10-02T14:45:01.045Z,3.08
2022-10-02T14:47:54.618Z,2.50
2022-10-02T14:50:37.429Z,2.60
2022-10-02T14:56:00.845Z,4.22
2022-10-02T14:58:42.700Z,3.42
2022-10-02T15:01:26.450Z,4.17
2022-10-02T15:04:18.258Z,3.55
2022-10-02T15:07:05.315Z,4.20
2022-10-02T15:09:54.150Z,3.80
2022-10-02T15:12:27.752Z,5.38
2022-10-02T15:15:06.773Z,7.63
2022-10-02T15:17:55.713Z,5.97
2022-10-02T15:20:40.580Z,6.28
2022-10-02T15:23:12.380Z,3.20
2022-10-02T15:25:57.053Z,3.70
2022-10-02T15:28:38.744Z,2.40
2022-10-02T15:31:19.380Z,2.50
2022-10-02T15:33:57.553Z,1.70
2022-10-02T15:36:44.866Z,2.05
2022-10-02T15:39:31.357Z,1.95
2022-10-02T15:42:05.467Z,2.17
2022-10-02T15:44:56.484Z,2.40
2022-10-02T15:47:38.241Z,2.97
2022-10-02T15:50:20.105Z,2.88
2022-10-02T15:53:00.658Z,2.67
2022-10-02T15:55:37.758Z,3.40
2022-10-02T15:58:16.889Z,3.67
2022-10-02T16:01:08.729Z,2.88
2022-10-02T16:03:47.110Z,2.53
2022-10-02T16:06:30.210Z,2.50
2022-10-02T16:09:16.015Z,3.22
2022-10-02T16:12:19.544Z,3.53
2022-10-02T16:14:59.104Z,15.88
2022-10-02T16:18:07.163Z,10.15
2022-10-02T16:20:58.331Z,5.20
2022-10-02T16:23:41.945Z,7.55
2022-10-02T16:26:20.886Z,4.05
2022-10-02T16:28:55.019Z,3.90
2022-10-02T16:31:50.480Z,1.83
2022-10-02T16:34:43.859Z,3.95
2022-10-02T16:37:24.321Z,3.83
2022-10-02T16:40:04.518Z,5.85
2022-10-02T16:42:56.881Z,8.50
2022-10-02T16:45:52.411Z,5.80
2022-10-02T16:48:31.702Z,5.15
2022-10-02T16:51:28.674Z,10.85
2022-10-02T16:54:04.601Z,5.50
2022-10-02T16:56:48.314Z,6.25
2022-10-02T16:59:25.101Z,8.00
2022-10-02T17:02:18.877Z,6.38
2022-10-02T17:05:06.293Z,5.88
2022-10-02T17:07:47.126Z,5.20
2022-10-02T17:10:59.020Z,5.82
2022-10-02T17:13:36.713Z,6.47
2022-10-02T17:16:25.254Z,8.13
2022-10-02T17:19:25.815Z,6.85
2022-10-02T17:21:56.507Z,5.60
2022-10-02T17:24:38.898Z,4.55
2022-10-02T17:27:17.229Z,3.50
2022-10-02T17:30:09.238Z,6.85
2022-10-02T17:32:50.824Z,16.23
2022-10-02T17:35:44.980Z,10.15
2022-10-02T17:38:46.081Z,8.00
2022-10-02T17:41:31.319Z,5.57
2022-10-02T17:44:11.685Z,4.05
2022-10-02T17:46:54.848Z,12.02
2022-10-02T17:49:32.220Z,6.25
2022-10-02T17:52:30.987Z,5.80
2022-10-02T17:55:26.776Z,7.32
2022-10-02T17:58:06.841Z,7.50
2022-10-02T18:00:41.643Z,11.80
2022-10-02T18:03:46.090Z,10.10
2022-10-02T18:06:22.127Z,11.02
2022-10-02T18:09:04.955Z,10.00
2022-10-02T18:14:27.025Z,8.25
2022-10-02T18:17:14.176Z,7.47
2022-10-02T18:19:57.282Z,8.63
2022-10-02T18:22:59.127Z,10.88
2022-10-02T18:25:49.159Z,12.35
2022-10-02T18:28:31.404Z,11.40
2022-10-02T18:31:28.784Z,7.68
2022-10-02T18:34:43.763Z,7.35
2022-10-02T18:37:23.243Z,11.77
2022-10-02T18:40:07.208Z,9.77
2022-10-02T18:42:50.179Z,13.60
2022-10-02T18:45:34.187Z,7.72
2022-10-02T18:48:28.612Z,14.15
2022-10-02T18:51:16.616Z,11.88
2022-10-02T18:53:58.426Z,11.73
2022-10-02T18:56:45.273Z,9.43
2022-10-02T18:59:23.174Z,6.07
2022-10-02T19:02:04.793Z,5.97
2022-10-02T19:05:03.854Z,4.45
2022-10-02T19:07:40.843Z,8.18
2022-10-02T19:10:26.188Z,6.70
2022-10-02T19:12:59.566Z,5.72
2022-10-02T19:15:30.497Z,8.38
2022-10-02T19:18:03.586Z,9.73
2022-10-02T19:20:46.601Z,9.15
2022-10-02T19:23:22.512Z,7.88
2022-10-02T19:25:52.535Z,7.63
2022-10-02T19:28:25.615Z,6.88
2022-10-02T19:30:58.515Z,6.05
2022-10-02T19:33:35.482Z,6.25
2022-10-02T19:36:07.145Z,6.75
2022-10-02T19:38:37.879Z,6.03
2022-10-02T19:41:10.537Z,7.78
2022-10-02T19:46:14.235Z,9.32
2022-10-02T19:48:42.177Z,9.52
2022-10-02T19:51:19.928Z,10.00
2022-10-02T19:53:52.865Z,11.90
2022-10-02T19:56:30.102Z,13.27
2022-10-02T19:59:03.780Z,12.57
2022-10-02T20:01:39.163Z,13.70
2022-10-02T20:04:07.916Z,14.85
2022-10-02T20:06:39.677Z,14.30
2022-10-02T20:09:16.485Z,16.73
2022-10-02T20:11:46.278Z,13.95
2022-10-02T20:14:19.773Z,12.95
2022-10-02T20:17:05.037Z,12.63
2022-10-02T20:19:36.942Z,13.88
2022-10-02T20:22:14.469Z,14.13
2022-10-02T20:24:51.290Z,13.02
2022-10-02T20:27:25.889Z,12.95
2022-10-02T20:30:00.863Z,12.77
2022-10-02T20:32:32.217Z,13.00
2022-10-02T20:35:04.749Z,15.70
2022-10-02T20:40:11.591Z,14.70
2022-10-02T20:42:47.461Z,15.45
2022-10-02T20:45:16.440Z,15.27
2022-10-02T20:48:13.789Z,14.45
2022-10-02T20:50:51.484Z,13.63
2022-10-02T20:54:01.268Z,13.52
2022-10-02T20:57:00.312Z,12.85
2022-10-02T21:00:01.687Z,11.95
2022-10-02T21:02:43.561Z,12.00
2022-10-02T21:05:31.624Z,12.88
2022-10-02T21:08:22.640Z,13.25
2022-10-02T21:11:17.353Z,11.48
2022-10-02T21:14:29.417Z,10.45
2022-10-02T21:17:38.869Z,8.88
2022-10-02T21:20:50.265Z,9.68
2022-10-02T21:23:47.513Z,9.50
2022-10-02T21:26:48.862Z,10.18
2022-10-02T21:29:42.795Z,8.90
2022-10-02T21:32:24.712Z,8.98
2022-10-02T21:35:05.891Z,9.77
2022-10-02T21:37:42.656Z,10.40
2022-10-02T21:40:52.194Z,11.70
2022-10-02T21:44:03.522Z,8.85
2022-10-02T21:47:13.612Z,8.65
2022-10-02T21:50:22.401Z,9.30
2022-10-02T21:53:25.364Z,11.68
2022-10-02T21:56:08.256Z,10.60
2022-10-02T22:02:04.136Z,9.93
2022-10-02T22:04:56.751Z,8.88
2022-10-02T22:07:34.523Z,8.32
2022-10-02T22:10:07.087Z,8.93
2022-10-02T22:15:13.410Z,8.15
2022-10-02T22:17:55.752Z,8.13
2022-10-02T22:20:43.022Z,8.13
2022-10-02T22:23:51.567Z,8.60
2022-10-02T22:26:34.810Z,7.47
2022-10-02T22:29:12.791Z,8.43
2022-10-02T22:32:16.138Z,6.38
2022-10-02T22:34:53.629Z,7.47
2022-10-02T22:37:56.825Z,8.13
2022-10-02T22:43:01.047Z,7.20
2022-10-02T22:45:35.236Z,7.75
2022-10-02T22:48:07.838Z,7.28
2022-10-02T22:53:12.072Z,6.35
2022-10-02T22:55:48.517Z,5.97
2022-10-02T22:58:24.133Z,6.15
2022-10-02T23:00:59.805Z,6.13
2022-10-02T23:03:37.795Z,6.65
2022-10-02T23:06:12.332Z,6.10
2022-10-02T23:08:47.687Z,6.50
2022-10-02T23:11:19.996Z,6.25
2022-10-02T23:13:51.849Z,6.20
2022-10-02T23:16:24.494Z,6.07
2022-10-02T23:18:58.996Z,6.13
2022-10-02T23:21:34.364Z,5.95
2022-10-02T23:24:08.258Z,5.68
2022-10-02T23:26:42.990Z,5.50
2022-10-02T23:29:22.811Z,5.82
2022-10-02T23:31:55.237Z,5.88
2022-10-02T23:34:33.915Z,5.65
2022-10-02T23:37:06.931Z,5.50
2022-10-02T23:39:42.320Z,5.90
2022-10-02T23:42:14.956Z,5.78
2022-10-02T23:47:32.903Z,5.72
2022-10-02T23:50:00.915Z,5.45
2022-10-02T23:52:53.439Z,5.03
2022-10-02T23:55:37.772Z,6.28
2022-10-02T23:58:22.286Z,6.28
